Climatologie pour Saint-Brevin les Pins
Jour • Résumé pour juillet 21, 2017 Système :  Métrique    Anglais   Mixte
« - 1 jour
+ 1 jour »
Jour Semaine Mois Année Personnalisé
  Maximum : Minimum : Moyenne :
Température sous abri : 22.4 °C 15.1 °C 18.4 °C
Point de rosée : 16.2 °C 10.5 °C 13.8 °C
Humidité : 95 % 60 % 75 %
Vitesse du vent : 35.4 km/h 0.0 km/h 9.3 km/h
Rafale : 48.3 km/h - -
Direction :- - SW
Pression : 1015.1 hPa 1007.7 hPa -
Précipitations : 7.9 mm    
Historical Graphs
 
 
Tableau de données pour juillet 21, 2017
Heure Tempé Pt rosée Pression Vent Vitesse Rafale Humidité Taux pluie (/hr) Soleil
00:00 15.9 °C 10.6 °C 1015.1 hPa WSW 6.4 km/h 14.5 km/h 71 % 0.0 mm 0 W/m2
00:05 15.8 °C 10.7 °C 1015.1 hPa WNW 1.6 km/h 11.3 km/h 72 % 0.0 mm 0 W/m2
00:10 15.6 °C 10.5 °C 1015.1 hPa West 4.8 km/h 14.5 km/h 72 % 0.0 mm 0 W/m2
00:15 15.6 °C 10.6 °C 1015.1 hPa West 4.8 km/h 14.5 km/h 72 % 0.0 mm 0 W/m2
00:20 15.6 °C 10.5 °C 1015.1 hPa Calm   14.5 km/h 72 % 0.0 mm 0 W/m2
00:25 15.7 °C 10.8 °C 1015.1 hPa West 3.2 km/h 11.3 km/h 73 % 0.0 mm 0 W/m2
00:30 15.5 °C 10.7 °C 1014.8 hPa SW 1.6 km/h 9.7 km/h 73 % 0.0 mm 0 W/m2
00:35 15.1 °C 10.7 °C 1014.8 hPa SW 1.6 km/h 11.3 km/h 75 % 0.0 mm 0 W/m2
00:40 15.3 °C 10.9 °C 1014.8 hPa Calm   12.9 km/h 75 % 0.0 mm 0 W/m2
00:45 15.7 °C 11.0 °C 1015.1 hPa West 8.0 km/h 12.9 km/h 74 % 0.0 mm 0 W/m2
00:50 15.6 °C 11.0 °C 1014.8 hPa WSW 4.8 km/h 11.3 km/h 74 % 0.0 mm 0 W/m2
00:55 15.8 °C 11.2 °C 1014.8 hPa West 6.4 km/h 16.1 km/h 74 % 0.0 mm 0 W/m2
01:00 15.7 °C 10.8 °C 1014.8 hPa WNW 1.6 km/h 16.1 km/h 73 % 0.0 mm 0 W/m2
01:05 15.8 °C 11.0 °C 1014.8 hPa Calm   12.9 km/h 73 % 0.0 mm 0 W/m2
01:10 15.9 °C 11.1 °C 1014.8 hPa WSW 1.6 km/h 11.3 km/h 73 % 0.0 mm 0 W/m2
01:15 15.8 °C 11.0 °C 1014.8 hPa West 4.8 km/h 9.7 km/h 73 % 0.0 mm 0 W/m2
01:20 15.8 °C 11.2 °C 1014.8 hPa West 6.4 km/h 11.3 km/h 74 % 0.0 mm 0 W/m2
01:25 15.6 °C 11.2 °C 1014.8 hPa WSW 4.8 km/h 16.1 km/h 75 % 0.0 mm 0 W/m2
01:30 15.6 °C 11.2 °C 1014.8 hPa Calm   16.1 km/h 75 % 0.0 mm 0 W/m2
01:35 15.7 °C 11.3 °C 1014.8 hPa West 8.0 km/h 9.7 km/h 75 % 0.0 mm 0 W/m2
01:40 15.8 °C 11.4 °C 1014.8 hPa WSW 1.6 km/h 12.9 km/h 75 % 0.0 mm 0 W/m2
01:45 15.8 °C 11.4 °C 1014.4 hPa Calm   12.9 km/h 75 % 0.0 mm 0 W/m2
01:50 16.0 °C 11.4 °C 1014.4 hPa SW 3.2 km/h 11.3 km/h 74 % 0.0 mm 0 W/m2
01:55 16.1 °C 11.5 °C 1014.4 hPa WSW 8.0 km/h 12.9 km/h 74 % 0.0 mm 0 W/m2
02:00 16.0 °C 11.4 °C 1014.4 hPa SW 8.0 km/h 14.5 km/h 74 % 0.0 mm 0 W/m2
02:05 16.1 °C 11.5 °C 1014.4 hPa Calm   16.1 km/h 74 % 0.0 mm 0 W/m2
02:10 16.1 °C 11.4 °C 1014.4 hPa WSW 6.4 km/h 16.1 km/h 74 % 0.0 mm 0 W/m2
02:15 16.0 °C 11.6 °C 1014.1 hPa WSW 3.2 km/h 11.3 km/h 75 % 0.0 mm 0 W/m2
02:20 15.7 °C 11.5 °C 1014.1 hPa SSW 11.3 km/h 11.3 km/h 76 % 0.0 mm 0 W/m2
02:25 15.8 °C 11.4 °C 1014.1 hPa WSW 4.8 km/h 11.3 km/h 75 % 0.0 mm 0 W/m2
02:30 16.1 °C 11.4 °C 1014.1 hPa WSW 6.4 km/h 11.3 km/h 74 % 0.0 mm 0 W/m2
02:35 16.2 °C 11.6 °C 1014.1 hPa WSW 6.4 km/h 11.3 km/h 74 % 0.0 mm 0 W/m2
02:40 16.3 °C 11.4 °C 1014.1 hPa SW 4.8 km/h 11.3 km/h 73 % 0.0 mm 0 W/m2
02:45 16.3 °C 11.4 °C 1014.1 hPa West 3.2 km/h 16.1 km/h 73 % 0.0 mm 0 W/m2
02:50 16.3 °C 11.3 °C 1013.8 hPa WSW 1.6 km/h 16.1 km/h 72 % 0.0 mm 0 W/m2
02:55 16.3 °C 11.3 °C 1013.8 hPa Calm   11.3 km/h 72 % 0.0 mm 0 W/m2
03:00 16.2 °C 11.2 °C 1013.8 hPa West 9.7 km/h 11.3 km/h 72 % 0.0 mm 0 W/m2
03:05 16.2 °C 11.1 °C 1013.8 hPa WSW 1.6 km/h 9.7 km/h 72 % 0.0 mm 0 W/m2
03:10 16.1 °C 11.2 °C 1013.8 hPa SW 4.8 km/h 9.7 km/h 73 % 0.0 mm 0 W/m2
03:15 16.2 °C 11.3 °C 1013.8 hPa SW 8.0 km/h 14.5 km/h 73 % 0.0 mm 0 W/m2
03:20 16.2 °C 11.4 °C 1013.8 hPa SW 3.2 km/h 14.5 km/h 73 % 0.0 mm 0 W/m2
03:25 16.3 °C 11.5 °C 1013.4 hPa WSW 4.8 km/h 11.3 km/h 73 % 0.0 mm 0 W/m2
03:30 16.3 °C 11.4 °C 1013.4 hPa Calm   11.3 km/h 73 % 0.0 mm 0 W/m2
03:35 16.3 °C 11.4 °C 1013.4 hPa WSW 9.7 km/h 12.9 km/h 73 % 0.0 mm 0 W/m2
03:40 16.4 °C 11.6 °C 1013.4 hPa SW 9.7 km/h 16.1 km/h 73 % 0.0 mm 0 W/m2
03:45 16.7 °C 11.8 °C 1013.4 hPa SW 9.7 km/h 16.1 km/h 73 % 0.0 mm 0 W/m2
03:50 16.7 °C 11.8 °C 1013.4 hPa Calm   14.5 km/h 73 % 0.0 mm 0 W/m2
03:55 16.6 °C 11.7 °C 1013.4 hPa SW 4.8 km/h 14.5 km/h 73 % 0.0 mm 0 W/m2
04:00 16.6 °C 11.7 °C 1013.1 hPa SW 3.2 km/h 12.9 km/h 73 % 0.0 mm 0 W/m2
04:05 16.6 °C 11.9 °C 1013.1 hPa West 4.8 km/h 12.9 km/h 74 % 0.0 mm 0 W/m2
04:10 16.8 °C 11.9 °C 1013.1 hPa WSW 4.8 km/h 16.1 km/h 73 % 0.0 mm 0 W/m2
04:15 16.9 °C 12.7 °C 1013.1 hPa West 9.7 km/h 19.3 km/h 76 % 0.0 mm 0 W/m2
04:20 16.9 °C 12.7 °C 1013.1 hPa West 9.7 km/h 19.3 km/h 76 % 0.0 mm 0 W/m2
04:25 16.9 °C 12.4 °C 1013.1 hPa WSW 8.0 km/h 19.3 km/h 75 % 0.0 mm 0 W/m2
04:30 16.8 °C 12.4 °C 1013.1 hPa SW 3.2 km/h 19.3 km/h 75 % 0.0 mm 0 W/m2
04:35 16.9 °C 12.5 °C 1013.1 hPa SW 17.7 km/h 19.3 km/h 75 % 0.0 mm 0 W/m2
04:45 17.0 °C 12.1 °C 1012.8 hPa WSW 6.4 km/h 20.9 km/h 73 % 0.0 mm 0 W/m2
04:50 17.1 °C 11.8 °C 1012.8 hPa WSW 12.9 km/h 22.5 km/h 71 % 0.0 mm 0 W/m2
04:55 17.1 °C 11.4 °C 1012.8 hPa WSW 8.0 km/h 27.4 km/h 69 % 0.0 mm 0 W/m2
05:00 17.2 °C 11.0 °C 1012.8 hPa SW 12.9 km/h 27.4 km/h 67 % 0.0 mm 0 W/m2
05:05 17.1 °C 11.4 °C 1012.8 hPa WSW 4.8 km/h 16.1 km/h 69 % 0.0 mm 0 W/m2
05:10 17.1 °C 11.8 °C 1012.8 hPa SW 4.8 km/h 19.3 km/h 71 % 0.0 mm 0 W/m2
05:20 17.2 °C 12.3 °C 1012.8 hPa WSW 8.0 km/h 16.1 km/h 73 % 0.0 mm 0 W/m2
05:25 17.2 °C 12.5 °C 1012.8 hPa WSW 9.7 km/h 17.7 km/h 74 % 0.0 mm 0 W/m2
05:30 17.2 °C 12.5 °C 1012.4 hPa WSW 6.4 km/h 17.7 km/h 74 % 0.0 mm 0 W/m2
05:35 17.1 °C 12.4 °C 1012.4 hPa WSW 3.2 km/h 17.7 km/h 74 % 0.0 mm 0 W/m2
05:40 17.1 °C 12.4 °C 1012.4 hPa WSW 8.0 km/h 14.5 km/h 74 % 0.0 mm 0 W/m2
05:45 17.1 °C 12.6 °C 1012.4 hPa WSW 3.2 km/h 14.5 km/h 75 % 0.0 mm 0 W/m2
05:50 17.1 °C 12.8 °C 1012.4 hPa Calm   12.9 km/h 76 % 0.0 mm 0 W/m2
05:55 17.1 °C 12.8 °C 1012.4 hPa SW 9.7 km/h 14.5 km/h 76 % 0.0 mm 0 W/m2
06:00 17.1 °C 12.8 °C 1012.4 hPa SW 4.8 km/h 14.5 km/h 76 % 0.0 mm 0 W/m2
06:05 17.0 °C 12.9 °C 1012.4 hPa Calm   12.9 km/h 77 % 0.0 mm 0 W/m2
06:10 16.9 °C 13.1 °C 1012.4 hPa SSW 1.6 km/h 12.9 km/h 78 % 0.0 mm 0 W/m2
06:15 16.8 °C 13.0 °C 1012.4 hPa WSW 3.2 km/h 12.9 km/h 78 % 0.0 mm 0 W/m2
06:20 16.7 °C 13.0 °C 1012.4 hPa West 4.8 km/h 12.9 km/h 79 % 0.0 mm 0 W/m2
06:25 16.6 °C 13.1 °C 1012.1 hPa WSW 4.8 km/h 9.7 km/h 80 % 0.0 mm 0 W/m2
06:30 16.6 °C 13.1 °C 1012.1 hPa Calm   8.0 km/h 80 % 0.0 mm 0 W/m2
06:35 16.6 °C 12.8 °C 1012.1 hPa WSW 3.2 km/h 11.3 km/h 78 % 0.0 mm 0 W/m2
06:40 16.8 °C 12.5 °C 1012.1 hPa WSW 4.8 km/h 11.3 km/h 76 % 0.0 mm 0 W/m2
06:45 16.8 °C 12.4 °C 1012.1 hPa WSW 9.7 km/h 11.3 km/h 75 % 0.0 mm 0 W/m2
06:50 16.9 °C 12.2 °C 1012.1 hPa West 3.2 km/h 12.9 km/h 74 % 0.0 mm 5 W/m2
06:55 16.9 °C 12.3 °C 1012.1 hPa WSW 4.8 km/h 14.5 km/h 74 % 0.0 mm 7 W/m2
07:00 17.0 °C 12.5 °C 1012.1 hPa West 4.8 km/h 14.5 km/h 75 % 0.0 mm 11 W/m2
07:05 17.1 °C 12.4 °C 1012.1 hPa WSW 12.9 km/h 12.9 km/h 74 % 0.0 mm 11 W/m2
07:10 17.2 °C 12.3 °C 1012.1 hPa SSW 4.8 km/h 16.1 km/h 73 % 0.0 mm 16 W/m2
07:15 17.3 °C 12.6 °C 1012.1 hPa WSW 3.2 km/h 16.1 km/h 74 % 0.0 mm 19 W/m2
07:20 17.4 °C 12.8 °C 1012.1 hPa South 1.6 km/h 14.5 km/h 74 % 0.0 mm 21 W/m2
07:25 17.5 °C 12.8 °C 1012.1 hPa WSW 4.8 km/h 12.9 km/h 74 % 0.0 mm 18 W/m2
07:30 17.6 °C 13.1 °C 1012.1 hPa SSW 1.6 km/h 14.5 km/h 75 % 0.0 mm 19 W/m2
07:35 17.6 °C 13.1 °C 1012.1 hPa SW 8.0 km/h 14.5 km/h 75 % 0.0 mm 26 W/m2
07:40 17.7 °C 13.0 °C 1012.1 hPa South 1.6 km/h 14.5 km/h 74 % 0.0 mm 18 W/m2
07:45 17.7 °C 13.2 °C 1012.1 hPa West 6.4 km/h 14.5 km/h 75 % 0.0 mm 19 W/m2
07:50 17.7 °C 12.8 °C 1012.1 hPa West 8.0 km/h 14.5 km/h 73 % 0.0 mm 25 W/m2
07:55 17.7 °C 12.8 °C 1012.1 hPa WSW 16.1 km/h 19.3 km/h 73 % 0.0 mm 19 W/m2
08:00 17.5 °C 13.2 °C 1012.1 hPa WNW 6.4 km/h 20.9 km/h 76 % 0.0 mm 25 W/m2
08:05 17.2 °C 13.5 °C 1012.1 hPa West 9.7 km/h 20.9 km/h 79 % 0.0 mm 19 W/m2
08:10 16.9 °C 13.8 °C 1012.1 hPa SSW 3.2 km/h 20.9 km/h 82 % 0.0 mm 25 W/m2
08:15 16.6 °C 13.8 °C 1011.7 hPa South 6.4 km/h 16.1 km/h 84 % 0.0 mm 25 W/m2
08:20 16.4 °C 13.9 °C 1011.7 hPa SW 1.6 km/h 14.5 km/h 85 % 0.0 mm 19 W/m2
08:25 16.3 °C 13.8 °C 1012.1 hPa WNW 1.6 km/h 12.9 km/h 85 % 0.0 mm 21 W/m2
08:30 16.3 °C 13.8 °C 1012.1 hPa SW 8.0 km/h 12.9 km/h 85 % 0.0 mm 25 W/m2
08:35 16.4 °C 13.7 °C 1012.1 hPa SW 6.4 km/h 12.9 km/h 84 % 0.0 mm 25 W/m2
08:40 16.4 °C 13.9 °C 1012.1 hPa SW 6.4 km/h 12.9 km/h 85 % 0.3 mm 28 W/m2
08:45 16.3 °C 13.8 °C 1012.1 hPa SSW 4.8 km/h 17.7 km/h 85 % 0.3 mm 51 W/m2
08:50 16.3 °C 13.8 °C 1012.1 hPa WSW 6.4 km/h 22.5 km/h 85 % 0.3 mm 39 W/m2
08:55 16.2 °C 13.8 °C 1012.1 hPa WSW 9.7 km/h 22.5 km/h 86 % 0.5 mm 56 W/m2
09:00 16.2 °C 14.0 °C 1011.7 hPa Calm   17.7 km/h 87 % 0.5 mm 70 W/m2
09:05 16.3 °C 14.1 °C 1011.7 hPa South 11.3 km/h 12.9 km/h 87 % 0.5 mm 74 W/m2
09:10 16.4 °C 13.9 °C 1012.1 hPa West 8.0 km/h 12.9 km/h 85 % 0.5 mm 30 W/m2
09:15 16.3 °C 14.0 °C 1012.1 hPa WNW 1.6 km/h 22.5 km/h 86 % 0.5 mm 40 W/m2
09:20 16.2 °C 13.8 °C 1012.1 hPa Calm   22.5 km/h 86 % 0.5 mm 33 W/m2
09:25 16.3 °C 14.1 °C 1012.1 hPa West 8.0 km/h 17.7 km/h 87 % 0.5 mm 54 W/m2
09:30 16.6 °C 14.2 °C 1012.1 hPa West 9.7 km/h 19.3 km/h 86 % 0.5 mm 74 W/m2
09:35 16.7 °C 13.9 °C 1012.1 hPa WSW 9.7 km/h 22.5 km/h 84 % 0.5 mm 76 W/m2
09:40 16.8 °C 13.9 °C 1012.1 hPa SW 8.0 km/h 22.5 km/h 83 % 0.3 mm 84 W/m2
09:45 17.1 °C 14.1 °C 1011.7 hPa SW 1.6 km/h 17.7 km/h 83 % 0.3 mm 128 W/m2
09:50 17.3 °C 14.2 °C 1011.7 hPa Calm   19.3 km/h 82 % 0.3 mm 151 W/m2
09:55 17.6 °C 14.7 °C 1011.7 hPa WSW 11.3 km/h 19.3 km/h 83 % 0.0 mm 171 W/m2
10:00 17.8 °C 14.5 °C 1011.7 hPa West 11.3 km/h 16.1 km/h 81 % 0.0 mm 190 W/m2
10:05 18.1 °C 14.6 °C 1011.7 hPa SW 4.8 km/h 16.1 km/h 80 % 0.0 mm 209 W/m2
10:10 18.2 °C 14.5 °C 1011.7 hPa NNW 9.7 km/h 17.7 km/h 79 % 0.0 mm 165 W/m2
10:15 18.2 °C 14.1 °C 1011.7 hPa West 9.7 km/h 19.3 km/h 77 % 0.0 mm 246 W/m2
10:20 18.4 °C 14.3 °C 1011.7 hPa WSW 4.8 km/h 19.3 km/h 77 % 0.0 mm 250 W/m2
10:25 18.7 °C 14.6 °C 1011.7 hPa WNW 1.6 km/h 17.7 km/h 77 % 0.0 mm 223 W/m2
10:30 18.6 °C 14.4 °C 1011.7 hPa West 11.3 km/h 19.3 km/h 77 % 0.0 mm 88 W/m2
10:35 18.1 °C 14.6 °C 1011.7 hPa SW 8.0 km/h 19.3 km/h 80 % 0.0 mm 146 W/m2
10:40 17.9 °C 14.4 °C 1011.7 hPa SW 1.6 km/h 17.7 km/h 80 % 0.0 mm 165 W/m2
10:45 18.1 °C 14.2 °C 1011.7 hPa WSW 3.2 km/h 17.7 km/h 78 % 0.0 mm 186 W/m2
10:50 18.2 °C 13.9 °C 1011.4 hPa WSW 9.7 km/h 17.7 km/h 76 % 0.0 mm 220 W/m2
10:55 18.4 °C 14.1 °C 1011.4 hPa SSW 11.3 km/h 19.3 km/h 76 % 0.0 mm 281 W/m2
11:00 18.7 °C 14.0 °C 1011.4 hPa SW 19.3 km/h 20.9 km/h 74 % 0.0 mm 338 W/m2
11:05 19.0 °C 14.0 °C 1011.4 hPa West 4.8 km/h 20.9 km/h 73 % 0.0 mm 367 W/m2
11:10 19.3 °C 14.3 °C 1011.4 hPa SSW 9.7 km/h 19.3 km/h 73 % 0.0 mm 290 W/m2
11:15 19.3 °C 14.3 °C 1011.4 hPa Calm   19.3 km/h 73 % 0.0 mm 271 W/m2
11:20 19.1 °C 13.9 °C 1011.4 hPa SSW 6.4 km/h 20.9 km/h 72 % 0.0 mm 214 W/m2
11:25 18.9 °C 14.0 °C 1011.4 hPa SSW 9.7 km/h 20.9 km/h 73 % 0.0 mm 220 W/m2
11:30 18.8 °C 13.9 °C 1011.4 hPa SW 14.5 km/h 20.9 km/h 73 % 0.0 mm 244 W/m2
11:35 18.9 °C 13.8 °C 1011.4 hPa SSW 14.5 km/h 25.7 km/h 72 % 0.0 mm 295 W/m2
11:40 19.1 °C 14.2 °C 1011.4 hPa SW 16.1 km/h 25.7 km/h 73 % 0.0 mm 302 W/m2
11:45 19.3 °C 14.3 °C 1011.4 hPa SW 1.6 km/h 19.3 km/h 73 % 0.0 mm 352 W/m2
11:50 19.4 °C 14.5 °C 1011.4 hPa SSW 6.4 km/h 16.1 km/h 73 % 0.0 mm 411 W/m2
11:55 19.8 °C 15.0 °C 1011.4 hPa SW 9.7 km/h 17.7 km/h 74 % 0.0 mm 306 W/m2
12:00 19.6 °C 14.4 °C 1011.4 hPa WSW 11.3 km/h 22.5 km/h 72 % 0.0 mm 399 W/m2
12:05 20.0 °C 14.6 °C 1011.4 hPa SW 8.0 km/h 22.5 km/h 71 % 0.0 mm 454 W/m2
12:10 20.4 °C 15.2 °C 1011.4 hPa WSW 12.9 km/h 24.1 km/h 72 % 0.0 mm 854 W/m2
12:15 20.7 °C 15.1 °C 1011.4 hPa SW 17.7 km/h 25.7 km/h 70 % 0.0 mm 849 W/m2
12:20 20.7 °C 14.5 °C 1011.4 hPa SW 9.7 km/h 25.7 km/h 68 % 0.0 mm 851 W/m2
12:25 20.9 °C 14.6 °C 1011.4 hPa West 8.0 km/h 24.1 km/h 67 % 0.0 mm 821 W/m2
12:30 21.0 °C 14.6 °C 1011.4 hPa WSW 12.9 km/h 24.1 km/h 67 % 0.0 mm 821 W/m2
12:35 21.2 °C 14.6 °C 1011.4 hPa SW 16.1 km/h 22.5 km/h 66 % 0.0 mm 888 W/m2
12:40 20.8 °C 14.5 °C 1011.4 hPa West 14.5 km/h 29.0 km/h 67 % 0.0 mm 823 W/m2
12:45 20.8 °C 14.5 °C 1011.4 hPa SSW 11.3 km/h 29.0 km/h 67 % 0.0 mm 877 W/m2
12:50 21.1 °C 14.7 °C 1011.1 hPa South 16.1 km/h 27.4 km/h 67 % 0.0 mm 786 W/m2
12:55 20.7 °C 14.6 °C 1011.1 hPa SW 8.0 km/h 27.4 km/h 68 % 0.0 mm 846 W/m2
13:00 21.5 °C 15.1 °C 1011.1 hPa WNW 19.3 km/h 27.4 km/h 67 % 0.0 mm 861 W/m2
13:05 21.6 °C 14.7 °C 1011.1 hPa SW 8.0 km/h 27.4 km/h 65 % 0.0 mm 886 W/m2
13:10 21.3 °C 14.2 °C 1011.1 hPa WSW 20.9 km/h 25.7 km/h 64 % 0.0 mm 884 W/m2
13:15 21.8 °C 15.0 °C 1011.1 hPa SW 16.1 km/h 25.7 km/h 65 % 0.0 mm 835 W/m2
13:20 21.9 °C 15.1 °C 1011.1 hPa West 11.3 km/h 25.7 km/h 65 % 0.0 mm 877 W/m2
13:25 22.0 °C 13.9 °C 1011.1 hPa SSW 16.1 km/h 24.1 km/h 60 % 0.0 mm 896 W/m2
13:30 21.8 °C 14.4 °C 1011.1 hPa West 9.7 km/h 25.7 km/h 63 % 0.0 mm 891 W/m2
13:35 22.4 °C 14.5 °C 1010.7 hPa SSW 8.0 km/h 25.7 km/h 61 % 0.0 mm 997 W/m2
13:40 22.1 °C 14.5 °C 1011.1 hPa NW 12.9 km/h 25.7 km/h 62 % 0.0 mm 972 W/m2
13:45 21.7 °C 14.1 °C 1010.7 hPa WSW 12.9 km/h 30.6 km/h 62 % 0.0 mm 972 W/m2
13:50 21.0 °C 14.4 °C 1010.7 hPa SSW 17.7 km/h 30.6 km/h 66 % 0.0 mm 972 W/m2
13:55 21.1 °C 14.5 °C 1010.7 hPa West 6.4 km/h 27.4 km/h 66 % 0.0 mm 367 W/m2
14:00 21.1 °C 14.7 °C 1010.7 hPa SW 11.3 km/h 25.7 km/h 67 % 0.0 mm 315 W/m2
14:05 20.8 °C 14.2 °C 1011.1 hPa South 4.8 km/h 32.2 km/h 66 % 0.0 mm 316 W/m2
14:10 20.5 °C 14.4 °C 1010.7 hPa SSW 11.3 km/h 32.2 km/h 68 % 0.0 mm 167 W/m2
14:15 19.9 °C 14.1 °C 1010.7 hPa West 3.2 km/h 25.7 km/h 69 % 0.0 mm 207 W/m2
14:20 20.1 °C 14.2 °C 1010.7 hPa SW 6.4 km/h 27.4 km/h 69 % 0.0 mm 427 W/m2
14:25 20.8 °C 14.5 °C 1010.7 hPa SW 12.9 km/h 29.0 km/h 67 % 0.0 mm 1106 W/m2
14:30 21.3 °C 14.5 °C 1011.1 hPa SW 16.1 km/h 29.0 km/h 65 % 0.0 mm 550 W/m2
14:35 21.1 °C 14.2 °C 1010.7 hPa South 14.5 km/h 27.4 km/h 65 % 0.0 mm 476 W/m2
14:40 21.4 °C 14.8 °C 1010.7 hPa SW 8.0 km/h 27.4 km/h 66 % 0.0 mm 533 W/m2
14:45 21.3 °C 14.4 °C 1011.1 hPa SSW 17.7 km/h 24.1 km/h 65 % 0.0 mm 497 W/m2
14:50 20.9 °C 14.1 °C 1010.7 hPa SSW 14.5 km/h 29.0 km/h 65 % 0.0 mm 434 W/m2
14:55 20.6 °C 14.2 °C 1010.7 hPa WSW 9.7 km/h 29.0 km/h 67 % 0.0 mm 392 W/m2
15:00 20.4 °C 13.8 °C 1010.7 hPa SW 17.7 km/h 24.1 km/h 66 % 0.0 mm 327 W/m2
15:05 20.3 °C 13.9 °C 1011.1 hPa SW 14.5 km/h 27.4 km/h 67 % 0.0 mm 364 W/m2
15:10 20.4 °C 13.8 °C 1010.7 hPa SW 6.4 km/h 27.4 km/h 66 % 0.0 mm 323 W/m2
15:15 20.2 °C 14.1 °C 1010.7 hPa SSE 6.4 km/h 29.0 km/h 68 % 0.0 mm 258 W/m2
15:20 20.1 °C 14.5 °C 1010.7 hPa SW 6.4 km/h 29.0 km/h 70 % 0.0 mm 369 W/m2
15:25 20.4 °C 14.5 °C 1010.7 hPa WSW 4.8 km/h 25.7 km/h 69 % 0.0 mm 369 W/m2
15:30 20.4 °C 14.3 °C 1010.7 hPa WSW 17.7 km/h 25.7 km/h 68 % 0.0 mm 378 W/m2
15:35 20.3 °C 14.6 °C 1010.7 hPa SW 9.7 km/h 27.4 km/h 70 % 0.0 mm 313 W/m2
15:40 20.2 °C 14.6 °C 1010.7 hPa WSW 11.3 km/h 29.0 km/h 70 % 0.0 mm 255 W/m2
15:45 20.1 °C 14.5 °C 1010.7 hPa South 6.4 km/h 29.0 km/h 70 % 0.0 mm 290 W/m2
15:50 20.2 °C 14.5 °C 1010.7 hPa WSW 12.9 km/h 24.1 km/h 70 % 0.0 mm 436 W/m2
15:55 20.6 °C 14.7 °C 1010.7 hPa West 4.8 km/h 27.4 km/h 69 % 0.0 mm 459 W/m2
16:00 20.6 °C 14.5 °C 1010.7 hPa SW 4.8 km/h 27.4 km/h 68 % 0.0 mm 237 W/m2
16:05 20.2 °C 14.3 °C 1010.7 hPa SW 19.3 km/h 27.4 km/h 69 % 0.0 mm 156 W/m2
16:10 19.8 °C 14.4 °C 1010.7 hPa SSW 6.4 km/h 27.4 km/h 71 % 0.0 mm 90 W/m2
16:15 19.4 °C 14.7 °C 1010.4 hPa SW 4.8 km/h 25.7 km/h 74 % 0.0 mm 199 W/m2
16:20 19.2 °C 14.8 °C 1010.4 hPa SW 9.7 km/h 32.2 km/h 76 % 0.0 mm 290 W/m2
16:25 19.4 °C 14.9 °C 1010.4 hPa SW 11.3 km/h 32.2 km/h 75 % 0.0 mm 251 W/m2
16:30 19.7 °C 15.3 °C 1010.4 hPa WSW 11.3 km/h 25.7 km/h 76 % 0.0 mm 357 W/m2
16:35 20.2 °C 15.4 °C 1010.4 hPa SSW 3.2 km/h 25.7 km/h 74 % 0.0 mm 441 W/m2
16:40 20.4 °C 15.0 °C 1010.0 hPa SSE 8.0 km/h 22.5 km/h 71 % 0.0 mm 255 W/m2
16:45 20.3 °C 14.8 °C 1010.0 hPa SSW 11.3 km/h 22.5 km/h 71 % 0.0 mm 304 W/m2
16:50 20.4 °C 15.2 °C 1010.0 hPa SSW 19.3 km/h 25.7 km/h 72 % 0.0 mm 461 W/m2
16:55 20.6 °C 14.7 °C 1010.0 hPa WSW 1.6 km/h 27.4 km/h 69 % 0.0 mm 348 W/m2
17:00 20.7 °C 14.8 °C 1010.0 hPa South 14.5 km/h 27.4 km/h 69 % 0.0 mm 360 W/m2
17:05 20.6 °C 14.5 °C 1010.0 hPa South 22.5 km/h 33.8 km/h 68 % 0.0 mm 434 W/m2
17:10 20.6 °C 14.4 °C 1010.0 hPa South 24.1 km/h 33.8 km/h 68 % 0.0 mm 320 W/m2
17:15 20.2 °C 14.6 °C 1010.0 hPa SW 11.3 km/h 33.8 km/h 70 % 0.0 mm 260 W/m2
17:20 20.2 °C 15.0 °C 1010.0 hPa SW 12.9 km/h 33.8 km/h 72 % 0.0 mm 362 W/m2
17:25 20.6 °C 15.2 °C 1010.0 hPa SSW 11.3 km/h 30.6 km/h 71 % 0.0 mm 350 W/m2
17:30 21.5 °C 15.6 °C 1009.7 hPa SSW 12.9 km/h 30.6 km/h 69 % 0.0 mm 826 W/m2
17:35 21.7 °C 15.3 °C 1009.7 hPa South 29.0 km/h 33.8 km/h 67 % 0.0 mm 707 W/m2
17:40 21.4 °C 15.3 °C 1009.7 hPa SSW 16.1 km/h 35.4 km/h 68 % 0.0 mm 719 W/m2
17:45 21.5 °C 15.3 °C 1009.7 hPa SSW 16.1 km/h 35.4 km/h 68 % 0.0 mm 612 W/m2
17:50 21.3 °C 15.4 °C 1009.7 hPa West 11.3 km/h 33.8 km/h 69 % 0.0 mm 612 W/m2
17:55 20.6 °C 14.9 °C 1009.7 hPa South 6.4 km/h 33.8 km/h 70 % 0.0 mm 285 W/m2
18:00 20.5 °C 15.1 °C 1009.7 hPa South 12.9 km/h 32.2 km/h 71 % 0.0 mm 399 W/m2
18:05 20.6 °C 15.2 °C 1009.7 hPa West 6.4 km/h 32.2 km/h 71 % 0.0 mm 294 W/m2
18:10 20.6 °C 15.3 °C 1009.7 hPa South 6.4 km/h 29.0 km/h 72 % 0.0 mm 267 W/m2
18:15 20.7 °C 15.2 °C 1009.4 hPa SW 11.3 km/h 29.0 km/h 71 % 0.0 mm 403 W/m2
18:20 20.6 °C 15.2 °C 1009.4 hPa SW 9.7 km/h 27.4 km/h 71 % 0.0 mm 265 W/m2
18:25 20.4 °C 15.2 °C 1009.7 hPa West 11.3 km/h 27.4 km/h 72 % 0.0 mm 265 W/m2
18:30 20.3 °C 15.3 °C 1009.4 hPa South 16.1 km/h 27.4 km/h 73 % 0.0 mm 232 W/m2
18:35 20.3 °C 15.1 °C 1009.4 hPa WNW 16.1 km/h 27.4 km/h 72 % 0.0 mm 214 W/m2
18:40 20.2 °C 14.7 °C 1009.4 hPa SW 25.7 km/h 29.0 km/h 71 % 0.0 mm 179 W/m2
18:45 20.1 °C 14.9 °C 1009.4 hPa West 6.4 km/h 32.2 km/h 72 % 0.0 mm 123 W/m2
18:50 20.0 °C 15.0 °C 1009.4 hPa WSW 3.2 km/h 32.2 km/h 73 % 0.0 mm 156 W/m2
18:55 20.1 °C 15.3 °C 1009.4 hPa SSW 11.3 km/h 32.2 km/h 74 % 0.0 mm 195 W/m2
19:00 20.2 °C 15.2 °C 1009.4 hPa WSW 14.5 km/h 32.2 km/h 73 % 0.0 mm 206 W/m2
19:05 20.0 °C 15.0 °C 1009.4 hPa SSW 27.4 km/h 27.4 km/h 73 % 0.0 mm 132 W/m2
19:10 19.9 °C 15.1 °C 1009.4 hPa SW 14.5 km/h 33.8 km/h 74 % 0.0 mm 116 W/m2
19:15 19.8 °C 15.1 °C 1009.0 hPa South 16.1 km/h 33.8 km/h 74 % 0.0 mm 109 W/m2
19:20 19.8 °C 15.2 °C 1009.0 hPa SW 11.3 km/h 32.2 km/h 75 % 0.0 mm 130 W/m2
19:25 19.9 °C 15.3 °C 1009.0 hPa SSW 9.7 km/h 32.2 km/h 75 % 0.0 mm 155 W/m2
19:30 19.9 °C 15.6 °C 1009.0 hPa South 14.5 km/h 29.0 km/h 76 % 0.0 mm 114 W/m2
19:35 20.0 °C 15.6 °C 1008.7 hPa SSW 11.3 km/h 29.0 km/h 76 % 0.0 mm 137 W/m2
19:40 19.9 °C 15.3 °C 1008.7 hPa SW 4.8 km/h 27.4 km/h 75 % 0.0 mm 139 W/m2
19:45 19.8 °C 15.4 °C 1008.7 hPa WSW 12.9 km/h 27.4 km/h 76 % 0.0 mm 111 W/m2
19:50 19.7 °C 15.3 °C 1008.7 hPa SSW 9.7 km/h 24.1 km/h 76 % 0.0 mm 127 W/m2
19:55 19.7 °C 15.4 °C 1008.7 hPa SSE 4.8 km/h 25.7 km/h 76 % 0.0 mm 114 W/m2
20:00 19.8 °C 15.4 °C 1008.7 hPa SSW 16.1 km/h 25.7 km/h 76 % 0.0 mm 162 W/m2
20:05 19.9 °C 15.3 °C 1009.0 hPa SSE 16.1 km/h 30.6 km/h 75 % 0.0 mm 146 W/m2
20:10 19.8 °C 15.5 °C 1009.0 hPa SSW 16.1 km/h 30.6 km/h 76 % 0.0 mm 63 W/m2
20:15 19.8 °C 15.4 °C 1008.7 hPa SSE 12.9 km/h 25.7 km/h 76 % 0.0 mm 37 W/m2
20:20 19.6 °C 15.4 °C 1008.7 hPa WSW 14.5 km/h 29.0 km/h 77 % 0.0 mm 28 W/m2
20:25 19.3 °C 15.4 °C 1008.7 hPa WSW 6.4 km/h 32.2 km/h 78 % 0.0 mm 21 W/m2
20:30 19.3 °C 15.3 °C 1008.7 hPa SW 30.6 km/h 32.2 km/h 78 % 0.0 mm 19 W/m2
20:35 19.3 °C 15.3 °C 1008.4 hPa South 9.7 km/h 32.2 km/h 78 % 0.0 mm 26 W/m2
20:40 19.3 °C 15.3 °C 1008.4 hPa SSW 20.9 km/h 35.4 km/h 78 % 0.0 mm 37 W/m2
20:45 19.3 °C 15.3 °C 1008.4 hPa SSW 25.7 km/h 41.8 km/h 78 % 0.0 mm 26 W/m2
20:50 19.3 °C 15.3 °C 1008.4 hPa SW 17.7 km/h 41.8 km/h 78 % 0.0 mm 26 W/m2
20:55 19.3 °C 15.3 °C 1008.4 hPa South 16.1 km/h 35.4 km/h 78 % 0.0 mm 19 W/m2
21:00 19.3 °C 15.5 °C 1008.4 hPa SSW 22.5 km/h 35.4 km/h 79 % 0.0 mm 11 W/m2
21:05 19.2 °C 15.5 °C 1008.4 hPa SSW 17.7 km/h 30.6 km/h 79 % 0.0 mm 9 W/m2
21:10 19.2 °C 15.5 °C 1008.4 hPa SW 20.9 km/h 30.6 km/h 79 % 0.0 mm 0 W/m2
21:15 19.2 °C 15.7 °C 1008.0 hPa South 19.3 km/h 29.0 km/h 80 % 0.0 mm 0 W/m2
21:20 19.2 °C 15.7 °C 1008.0 hPa SSW 6.4 km/h 29.0 km/h 80 % 0.0 mm 0 W/m2
21:25 19.2 °C 15.6 °C 1008.0 hPa SSW 14.5 km/h 35.4 km/h 80 % 0.0 mm 0 W/m2
21:30 19.2 °C 15.6 °C 1008.0 hPa SSW 14.5 km/h 35.4 km/h 80 % 0.0 mm 0 W/m2
21:35 19.2 °C 15.6 °C 1008.0 hPa SSW 19.3 km/h 32.2 km/h 80 % 0.0 mm 0 W/m2
21:40 19.2 °C 15.6 °C 1008.0 hPa WSW 17.7 km/h 35.4 km/h 80 % 0.0 mm 0 W/m2
21:45 19.2 °C 15.6 °C 1007.7 hPa SW 6.4 km/h 35.4 km/h 80 % 0.0 mm 0 W/m2
21:50 19.2 °C 15.9 °C 1008.0 hPa SSW 35.4 km/h 35.4 km/h 81 % 0.0 mm 0 W/m2
21:55 19.2 °C 15.9 °C 1007.7 hPa SSW 14.5 km/h 43.4 km/h 81 % 0.0 mm 0 W/m2
22:00 19.2 °C 15.9 °C 1007.7 hPa SSW 29.0 km/h 43.4 km/h 81 % 0.0 mm 0 W/m2
22:05 19.2 °C 15.9 °C 1007.7 hPa South 16.1 km/h 32.2 km/h 81 % 0.0 mm 0 W/m2
22:10 19.2 °C 15.9 °C 1007.7 hPa SW 9.7 km/h 32.2 km/h 81 % 0.0 mm 0 W/m2
22:15 19.2 °C 15.9 °C 1007.7 hPa SSW 17.7 km/h 35.4 km/h 81 % 0.0 mm 0 W/m2
22:20 19.3 °C 15.9 °C 1007.7 hPa SSW 11.3 km/h 35.4 km/h 81 % 0.0 mm 0 W/m2
22:25 19.3 °C 15.9 °C 1007.7 hPa South 32.2 km/h 40.2 km/h 81 % 0.0 mm 0 W/m2
22:30 19.3 °C 15.9 °C 1007.7 hPa SW 16.1 km/h 40.2 km/h 81 % 0.0 mm 0 W/m2
22:35 19.3 °C 15.9 °C 1007.7 hPa SSW 12.9 km/h 46.7 km/h 81 % 0.0 mm 0 W/m2
22:40 19.2 °C 16.2 °C 1007.7 hPa SSW 17.7 km/h 48.3 km/h 83 % 0.0 mm 0 W/m2
22:45 18.8 °C 16.2 °C 1007.7 hPa SSW 12.9 km/h 48.3 km/h 85 % 0.0 mm 0 W/m2
22:55 17.9 °C 16.1 °C 1008.4 hPa WNW 14.5 km/h 33.8 km/h 89 % 3.3 mm 0 W/m2
23:00 17.3 °C 15.6 °C 1008.4 hPa West 9.7 km/h 33.8 km/h 90 % 4.8 mm 0 W/m2
23:05 16.8 °C 15.5 °C 1008.4 hPa WNW 9.7 km/h 24.1 km/h 92 % 5.8 mm 0 W/m2
23:10 16.5 °C 15.4 °C 1008.7 hPa WNW 12.9 km/h 22.5 km/h 93 % 6.3 mm 0 W/m2
23:15 16.2 °C 15.1 °C 1008.7 hPa WNW 9.7 km/h 19.3 km/h 93 % 6.9 mm 0 W/m2
23:20 16.1 °C 14.9 °C 1008.7 hPa NW 8.0 km/h 19.3 km/h 93 % 7.1 mm 0 W/m2
23:25 15.9 °C 14.9 °C 1008.7 hPa WNW 4.8 km/h 14.5 km/h 94 % 7.1 mm 0 W/m2
23:30 15.8 °C 14.8 °C 1008.7 hPa NW 6.4 km/h 17.7 km/h 94 % 7.4 mm 0 W/m2
23:35 15.7 °C 14.8 °C 1008.7 hPa NW 4.8 km/h 17.7 km/h 94 % 7.4 mm 0 W/m2
23:40 15.7 °C 14.9 °C 1008.7 hPa West 12.9 km/h 14.5 km/h 95 % 7.4 mm 0 W/m2
23:45 15.7 °C 14.9 °C 1008.7 hPa Calm   14.5 km/h 95 % 7.4 mm 0 W/m2
23:50 15.6 °C 14.8 °C 1009.0 hPa WNW 6.4 km/h 12.9 km/h 95 % 6.1 mm 0 W/m2
23:55 15.6 °C 14.8 °C 1009.0 hPa West 11.3 km/h 12.9 km/h 95 % 4.3 mm 0 W/m2
Avec l'autorisation de Weather Underground - 1.75 mb